Portada
METAR-TAF:

METAR-TAF

Aeropuertos :

Aeropuerto Internacional de Malé

Malé, Maldivas

latitud: 04-12N, longitud: 073-32E, altitud: 2 m

Observación

El informe se hizo hace 51 minutos, a las 08:00 UTC
Viento 10 kt del oeste-suroeste
Temperatura 31°C
Humedad 71%
Presión 1010 hPa
Visibilidad 10 km o más
Nubes dispersas a una altura de 1800 ft, Cumulus congestus.

METAR: VRMM 170800Z 24010KT 9999 SCT018TCU 31/25 Q1010 NOSIG

Hora: 13:51 (08:51 UTC)

Pronóstico

El informe se hizo hace 3 horas y 51 minutos, a las 05:00 UTC
Pronóstico válido del 17 a las 06 UTC al 18 a las 12 UTC
Viento 9 kt del oeste-suroeste
Visibilidad: 9000 m
Escasas nubes a una altura de 1800 ft
Temporalmente
del 17 a las 09 UTC al 17 a las 15 UTC
Escasas nubes a una altura de 1900 ft, Cumulonimbus.

TAF: VRMM 170500Z 1706/1812 25009KT 9000 FEW018 TEMPO 1709/1715 FEW019CB

Observaciones y pronósticos meteorológicos de más de 4000 aeropuertos (mensajes METAR y TAF).

Los puntos amarillos y rojos representan las estaciones disponibles.

Ponga el ratón en el punto deseado para ver el nombre de la estación.

Haga clic para ver las observaciones y los pronósticos meteorológicos.

Para cambiar el mapa : haga clic en los botones verdes con una cruz de color negro para hacer un zoom, en el botón verde con un guión para alejar o en las flechas verdes para mapas adyacentes.


METAR-TAF: